sensor_id;sensor_type;location;lat;lon;timestamp;pressure;altitude;pressure_sealevel;temperature;humidity
44481;BME280;30184;42.018;23.670;2023-07-29T00:01:49;91569.66;;;14.55;64.58
44481;BME280;30184;42.018;23.670;2023-07-29T00:04:19;91508.22;;;14.51;64.51
44481;BME280;30184;42.018;23.670;2023-07-29T00:06:48;91509.28;;;14.44;65.19
44481;BME280;30184;42.018;23.670;2023-07-29T00:09:18;91457.06;;;14.06;64.98
44481;BME280;30184;42.018;23.670;2023-07-29T00:11:49;91478.16;;;14.24;65.35
44481;BME280;30184;42.018;23.670;2023-07-29T00:14:18;91501.34;;;14.37;65.44
44481;BME280;30184;42.018;23.670;2023-07-29T00:16:47;91496.25;;;14.39;65.70
44481;BME280;30184;42.018;23.670;2023-07-29T00:19:16;91495.47;;;14.39;65.31
44481;BME280;30184;42.018;23.670;2023-07-29T00:21:45;91498.63;;;14.37;65.66
44481;BME280;30184;42.018;23.670;2023-07-29T00:24:15;91498.03;;;14.33;65.58
44481;BME280;30184;42.018;23.670;2023-07-29T00:26:44;91505.78;;;14.35;65.63
44481;BME280;30184;42.018;23.670;2023-07-29T00:29:14;91500.31;;;14.35;65.91
44481;BME280;30184;42.018;23.670;2023-07-29T00:31:44;91505.91;;;14.31;66.00
44481;BME280;30184;42.018;23.670;2023-07-29T00:34:14;91508.63;;;14.22;66.38
44481;BME280;30184;42.018;23.670;2023-07-29T00:36:47;91502.09;;;14.19;66.23
44481;BME280;30184;42.018;23.670;2023-07-29T00:39:16;91506.53;;;14.17;66.54
44481;BME280;30184;42.018;23.670;2023-07-29T00:41:47;91530.75;;;14.15;66.79
44481;BME280;30184;42.018;23.670;2023-07-29T00:44:17;91477.50;;;13.92;66.78
44481;BME280;30184;42.018;23.670;2023-07-29T00:46:48;91500.13;;;14.11;66.37
44481;BME280;30184;42.018;23.670;2023-07-29T00:49:20;91509.78;;;13.94;66.51
44481;BME280;30184;42.018;23.670;2023-07-29T00:51:50;91505.28;;;14.09;66.55
44481;BME280;30184;42.018;23.670;2023-07-29T00:54:20;91433.06;;;13.64;66.62
44481;BME280;30184;42.018;23.670;2023-07-29T00:56:49;91473.25;;;13.82;66.86
44481;BME280;30184;42.018;23.670;2023-07-29T00:59:20;91494.81;;;13.98;67.25
44481;BME280;30184;42.018;23.670;2023-07-29T01:01:49;91228.31;;;12.18;66.94
44481;BME280;30184;42.018;23.670;2023-07-29T01:04:18;91492.66;;;13.93;67.76
44481;BME280;30184;42.018;23.670;2023-07-29T01:06:53;91501.00;;;13.90;67.37
44481;BME280;30184;42.018;23.670;2023-07-29T01:09:35;91493.56;;;13.90;67.51
44481;BME280;30184;42.018;23.670;2023-07-29T01:12:11;91464.88;;;13.58;67.81
44481;BME280;30184;42.018;23.670;2023-07-29T01:14:53;91499.94;;;13.87;67.42
44481;BME280;30184;42.018;23.670;2023-07-29T01:17:28;91483.97;;;13.67;67.79
44481;BME280;30184;42.018;23.670;2023-07-29T01:20:01;91503.13;;;13.86;67.71
44481;BME280;30184;42.018;23.670;2023-07-29T01:22:34;91502.34;;;13.85;67.66
44481;BME280;30184;42.018;23.670;2023-07-29T01:25:06;91496.59;;;13.83;67.86
44481;BME280;30184;42.018;23.670;2023-07-29T01:27:35;91499.75;;;13.81;67.89
44481;BME280;30184;42.018;23.670;2023-07-29T01:30:06;91500.22;;;13.80;68.08
44481;BME280;30184;42.018;23.670;2023-07-29T01:32:41;91501.25;;;13.73;68.49
44481;BME280;30184;42.018;23.670;2023-07-29T01:35:21;91505.66;;;13.71;68.40
44481;BME280;30184;42.018;23.670;2023-07-29T01:37:55;91522.47;;;13.69;68.15
44481;BME280;30184;42.018;23.670;2023-07-29T01:40:26;91528.41;;;13.46;68.15
44481;BME280;30184;42.018;23.670;2023-07-29T01:42:56;91500.78;;;13.66;68.56
44481;BME280;30184;42.018;23.670;2023-07-29T01:45:26;91507.13;;;13.63;68.49
44481;BME280;30184;42.018;23.670;2023-07-29T01:47:55;91500.31;;;13.58;68.53
44481;BME280;30184;42.018;23.670;2023-07-29T01:50:25;91506.97;;;13.57;69.12
44481;BME280;30184;42.018;23.670;2023-07-29T01:52:54;91509.38;;;13.55;68.97
44481;BME280;30184;42.018;23.670;2023-07-29T01:55:23;91508.78;;;13.51;68.98
44481;BME280;30184;42.018;23.670;2023-07-29T01:57:55;91467.91;;;13.20;69.12
44481;BME280;30184;42.018;23.670;2023-07-29T02:00:25;91499.97;;;13.47;69.10
44481;BME280;30184;42.018;23.670;2023-07-29T02:02:55;91496.91;;;13.45;69.38
44481;BME280;30184;42.018;23.670;2023-07-29T02:05:24;91506.28;;;13.44;69.33
44481;BME280;30184;42.018;23.670;2023-07-29T02:07:53;91506.91;;;13.39;69.69
44481;BME280;30184;42.018;23.670;2023-07-29T02:10:23;91505.38;;;13.38;69.78
44481;BME280;30184;42.018;23.670;2023-07-29T02:12:52;91503.38;;;13.29;69.99
44481;BME280;30184;42.018;23.670;2023-07-29T02:15:23;91506.09;;;13.29;70.41
44481;BME280;30184;42.018;23.670;2023-07-29T02:17:52;91475.38;;;13.07;70.14
44481;BME280;30184;42.018;23.670;2023-07-29T02:20:21;91509.25;;;13.28;70.07
44481;BME280;30184;42.018;23.670;2023-07-29T02:22:56;91519.84;;;13.26;70.07
44481;BME280;30184;42.018;23.670;2023-07-29T02:25:25;91518.34;;;13.25;70.11
44481;BME280;30184;42.018;23.670;2023-07-29T02:27:55;91513.34;;;13.23;69.96
44481;BME280;30184;42.018;23.670;2023-07-29T02:30:26;91551.59;;;13.20;70.55
44481;BME280;30184;42.018;23.670;2023-07-29T02:32:55;91521.31;;;13.18;70.65
44481;BME280;30184;42.018;23.670;2023-07-29T02:35:24;91518.59;;;13.18;70.77
44481;BME280;30184;42.018;23.670;2023-07-29T02:37:54;91518.59;;;13.18;70.44
44481;BME280;30184;42.018;23.670;2023-07-29T02:40:23;91514.06;;;13.15;70.45
44481;BME280;30184;42.018;23.670;2023-07-29T02:42:54;91516.56;;;13.09;70.73
44481;BME280;30184;42.018;23.670;2023-07-29T02:45:25;91508.16;;;12.94;70.98
44481;BME280;30184;42.018;23.670;2023-07-29T02:47:55;91522.28;;;13.02;71.20
44481;BME280;30184;42.018;23.670;2023-07-29T02:50:24;91525.88;;;12.99;71.23
44481;BME280;30184;42.018;23.670;2023-07-29T02:52:53;91521.19;;;12.99;71.32
44481;BME280;30184;42.018;23.670;2023-07-29T02:55:23;91334.66;;;11.68;71.41
44481;BME280;30184;42.018;23.670;2023-07-29T02:57:52;91527.06;;;12.98;71.91
44481;BME280;30184;42.018;23.670;2023-07-29T03:00:22;91524.34;;;12.98;72.31
44481;BME280;30184;42.018;23.670;2023-07-29T03:02:52;91520.13;;;12.97;72.06
44481;BME280;30184;42.018;23.670;2023-07-29T03:05:21;91531.78;;;12.97;71.83
44481;BME280;30184;42.018;23.670;2023-07-29T03:07:51;91528.44;;;12.93;72.11
44481;BME280;30184;42.018;23.670;2023-07-29T03:10:20;91496.78;;;12.65;72.17
44481;BME280;30184;42.018;23.670;2023-07-29T03:12:50;91525.06;;;12.89;72.70
44481;BME280;30184;42.018;23.670;2023-07-29T03:15:22;91523.53;;;12.88;72.64
44481;BME280;30184;42.018;23.670;2023-07-29T03:17:53;91525.97;;;12.86;72.34
44481;BME280;30184;42.018;23.670;2023-07-29T03:20:22;91529.56;;;12.83;72.69
44481;BME280;30184;42.018;23.670;2023-07-29T03:22:51;91529.56;;;12.83;72.53
44481;BME280;30184;42.018;23.670;2023-07-29T03:25:21;91524.88;;;12.84;72.65
44481;BME280;30184;42.018;23.670;2023-07-29T03:27:51;91522.59;;;12.82;72.70
44481;BME280;30184;42.018;23.670;2023-07-29T03:30:20;91533.16;;;12.80;72.83
44481;BME280;30184;42.018;23.670;2023-07-29T03:32:52;91531.97;;;12.81;72.52
44481;BME280;30184;42.018;23.670;2023-07-29T03:35:22;91534.25;;;12.83;72.44
44481;BME280;30184;42.018;23.670;2023-07-29T03:37:51;91532.72;;;12.82;72.88
44481;BME280;30184;42.018;23.670;2023-07-29T03:40:21;91510.22;;;12.59;72.84
44481;BME280;30184;42.018;23.670;2023-07-29T03:42:50;91551.34;;;12.83;72.90
44481;BME280;30184;42.018;23.670;2023-07-29T03:45:19;91521.91;;;12.69;73.44
44481;BME280;30184;42.018;23.670;2023-07-29T03:47:48;91533.06;;;12.84;73.17
44481;BME280;30184;42.018;23.670;2023-07-29T03:50:19;91543.44;;;12.76;73.14
44481;BME280;30184;42.018;23.670;2023-07-29T03:52:49;91497.59;;;12.53;72.55
44481;BME280;30184;42.018;23.670;2023-07-29T03:55:18;91551.53;;;12.89;72.72
44481;BME280;30184;42.018;23.670;2023-07-29T03:57:48;91545.03;;;12.86;72.68
44481;BME280;30184;42.018;23.670;2023-07-29T04:00:17;91539.59;;;12.86;72.98
44481;BME280;30184;42.018;23.670;2023-07-29T04:02:48;91553.97;;;12.87;73.12
44481;BME280;30184;42.018;23.670;2023-07-29T04:05:20;91537.91;;;12.89;73.05
44481;BME280;30184;42.018;23.670;2023-07-29T04:07:49;91536.28;;;12.91;72.69
44481;BME280;30184;42.018;23.670;2023-07-29T04:10:20;91460.88;;;12.36;72.33
44481;BME280;30184;42.018;23.670;2023-07-29T04:12:49;91549.72;;;12.86;72.31
44481;BME280;30184;42.018;23.670;2023-07-29T04:15:18;91547.88;;;12.83;72.74
44481;BME280;30184;42.018;23.670;2023-07-29T04:17:48;91545.47;;;12.85;72.85
44481;BME280;30184;42.018;23.670;2023-07-29T04:20:17;91434.81;;;12.04;73.35
44481;BME280;30184;42.018;23.670;2023-07-29T04:22:48;91550.03;;;12.88;73.80
44481;BME280;30184;42.018;23.670;2023-07-29T04:25:18;91469.69;;;12.40;73.62
44481;BME280;30184;42.018;23.670;2023-07-29T04:27:47;91547.81;;;12.95;73.32
44481;BME280;30184;42.018;23.670;2023-07-29T04:30:17;91545.25;;;13.01;73.56
44481;BME280;30184;42.018;23.670;2023-07-29T04:32:46;91551.34;;;13.05;73.63
44481;BME280;30184;42.018;23.670;2023-07-29T04:35:16;91548.03;;;13.10;73.49
44481;BME280;30184;42.018;23.670;2023-07-29T04:37:46;91538.09;;;13.16;73.39
44481;BME280;30184;42.018;23.670;2023-07-29T04:40:17;91505.00;;;13.27;72.53
44481;BME280;30184;42.018;23.670;2023-07-29T04:42:46;91544.91;;;13.82;71.67
44481;BME280;30184;42.018;23.670;2023-07-29T04:45:16;91536.97;;;14.15;71.09
44481;BME280;30184;42.018;23.670;2023-07-29T04:47:45;91543.72;;;14.42;69.93
44481;BME280;30184;42.018;23.670;2023-07-29T04:50:15;91534.63;;;14.72;69.14
44481;BME280;30184;42.018;23.670;2023-07-29T04:52:44;91541.09;;;15.11;68.03
44481;BME280;30184;42.018;23.670;2023-07-29T04:55:13;91527.66;;;15.59;66.18
44481;BME280;30184;42.018;23.670;2023-07-29T04:57:44;91536.91;;;16.27;63.87
44481;BME280;30184;42.018;23.670;2023-07-29T05:00:13;91538.16;;;16.89;61.48
44481;BME280;30184;42.018;23.670;2023-07-29T05:02:43;91529.16;;;17.41;59.97
44481;BME280;30184;42.018;23.670;2023-07-29T05:05:12;91533.19;;;18.05;57.43
44481;BME280;30184;42.018;23.670;2023-07-29T05:07:41;91538.56;;;18.49;56.11
44481;BME280;30184;42.018;23.670;2023-07-29T05:10:10;91527.47;;;18.78;54.82
44481;BME280;30184;42.018;23.670;2023-07-29T05:12:40;91524.69;;;18.98;53.49
44481;BME280;30184;42.018;23.670;2023-07-29T05:15:11;91528.09;;;19.14;53.31
44481;BME280;30184;42.018;23.670;2023-07-29T05:17:40;91520.41;;;19.18;53.15
44481;BME280;30184;42.018;23.670;2023-07-29T05:20:10;91451.88;;;18.68;53.09
44481;BME280;30184;42.018;23.670;2023-07-29T05:22:39;91491.00;;;19.04;53.25
44481;BME280;30184;42.018;23.670;2023-07-29T05:25:09;91528.81;;;19.34;53.52
44481;BME280;30184;42.018;23.670;2023-07-29T05:27:38;91532.59;;;19.37;53.27
44481;BME280;30184;42.018;23.670;2023-07-29T05:30:08;91538.19;;;19.22;52.75
44481;BME280;30184;42.018;23.670;2023-07-29T05:32:39;91522.19;;;19.21;54.98
44481;BME280;30184;42.018;23.670;2023-07-29T05:35:08;91529.81;;;19.11;53.67
44481;BME280;30184;42.018;23.670;2023-07-29T05:37:38;91529.63;;;19.15;53.51
44481;BME280;30184;42.018;23.670;2023-07-29T05:40:08;91430.16;;;18.50;54.28
44481;BME280;30184;42.018;23.670;2023-07-29T05:42:39;91530.50;;;19.26;54.35
44481;BME280;30184;42.018;23.670;2023-07-29T05:45:09;91493.53;;;19.07;53.94
44481;BME280;30184;42.018;23.670;2023-07-29T05:47:39;91446.84;;;18.46;53.87
44481;BME280;30184;42.018;23.670;2023-07-29T05:50:09;91279.84;;;17.64;54.50
44481;BME280;30184;42.018;23.670;2023-07-29T05:52:38;91527.50;;;19.30;54.42
44481;BME280;30184;42.018;23.670;2023-07-29T05:55:08;91523.06;;;19.32;54.63
44481;BME280;30184;42.018;23.670;2023-07-29T05:57:37;91522.56;;;19.34;51.78
44481;BME280;30184;42.018;23.670;2023-07-29T06:00:09;91522.56;;;19.34;54.40
44481;BME280;30184;42.018;23.670;2023-07-29T06:02:42;91525.16;;;19.43;51.60
44481;BME280;30184;42.018;23.670;2023-07-29T06:05:16;91526.81;;;19.55;53.70
44481;BME280;30184;42.018;23.670;2023-07-29T06:07:45;91522.13;;;19.67;55.67
44481;BME280;30184;42.018;23.670;2023-07-29T06:10:16;91528.50;;;19.79;55.30
44481;BME280;30184;42.018;23.670;2023-07-29T06:12:47;91530.88;;;19.91;55.03
44481;BME280;30184;42.018;23.670;2023-07-29T06:15:17;91523.41;;;20.03;53.33
44481;BME280;30184;42.018;23.670;2023-07-29T06:17:50;91514.75;;;20.16;53.72
44481;BME280;30184;42.018;23.670;2023-07-29T06:20:21;91515.09;;;20.29;53.78
44481;BME280;30184;42.018;23.670;2023-07-29T06:22:51;91509.66;;;20.40;50.97
44481;BME280;30184;42.018;23.670;2023-07-29T06:25:20;91441.06;;;20.05;50.10
44481;BME280;30184;42.018;23.670;2023-07-29T06:27:50;91483.66;;;20.46;50.30
44481;BME280;30184;42.018;23.670;2023-07-29T06:30:19;91510.06;;;20.70;49.89
44481;BME280;30184;42.018;23.670;2023-07-29T06:32:48;91508.63;;;20.80;49.29
44481;BME280;30184;42.018;23.670;2023-07-29T06:35:19;91507.16;;;20.90;49.41
44481;BME280;30184;42.018;23.670;2023-07-29T06:37:48;91506.44;;;21.01;50.67
44481;BME280;30184;42.018;23.670;2023-07-29T06:40:17;91508.72;;;21.13;50.66
44481;BME280;30184;42.018;23.670;2023-07-29T06:42:47;91498.25;;;21.23;50.10
44481;BME280;30184;42.018;23.670;2023-07-29T06:45:16;91353.31;;;20.40;49.55
44481;BME280;30184;42.018;23.670;2023-07-29T06:47:45;91488.50;;;21.44;48.60
44481;BME280;30184;42.018;23.670;2023-07-29T06:50:14;91491.78;;;21.54;48.76
44481;BME280;30184;42.018;23.670;2023-07-29T06:52:45;91505.59;;;21.59;47.75
44481;BME280;30184;42.018;23.670;2023-07-29T06:55:14;91497.06;;;21.74;47.39
44481;BME280;30184;42.018;23.670;2023-07-29T06:57:43;91489.78;;;21.82;47.40
44481;BME280;30184;42.018;23.670;2023-07-29T07:00:13;91492.31;;;21.91;49.47
44481;BME280;30184;42.018;23.670;2023-07-29T07:02:42;91493.59;;;22.02;48.62
44481;BME280;30184;42.018;23.670;2023-07-29T07:05:11;91488.06;;;22.13;49.55
44481;BME280;30184;42.018;23.670;2023-07-29T07:07:40;91452.84;;;21.96;48.21
44481;BME280;30184;42.018;23.670;2023-07-29T07:10:11;91484.00;;;22.25;48.18
44481;BME280;30184;42.018;23.670;2023-07-29T07:12:40;91454.63;;;22.22;47.28
44481;BME280;30184;42.018;23.670;2023-07-29T07:15:09;91463.59;;;22.50;46.26
44481;BME280;30184;42.018;23.670;2023-07-29T07:17:38;91425.44;;;22.32;45.80
44481;BME280;30184;42.018;23.670;2023-07-29T07:20:08;91461.03;;;22.75;45.81
44481;BME280;30184;42.018;23.670;2023-07-29T07:22:37;91462.50;;;22.87;45.24
44481;BME280;30184;42.018;23.670;2023-07-29T07:25:07;91449.84;;;23.02;44.02
44481;BME280;30184;42.018;23.670;2023-07-29T07:27:38;91446.25;;;23.13;44.28
44481;BME280;30184;42.018;23.670;2023-07-29T07:30:08;91448.94;;;23.30;43.76
44481;BME280;30184;42.018;23.670;2023-07-29T07:32:37;91443.06;;;23.44;44.62
44481;BME280;30184;42.018;23.670;2023-07-29T07:35:06;91442.22;;;23.61;43.54
44481;BME280;30184;42.018;23.670;2023-07-29T07:37:36;91432.00;;;23.74;45.87
44481;BME280;30184;42.018;23.670;2023-07-29T07:40:06;91432.69;;;23.86;41.82
44481;BME280;30184;42.018;23.670;2023-07-29T07:42:35;91433.78;;;24.02;39.03
44481;BME280;30184;42.018;23.670;2023-07-29T07:45:06;91437.75;;;24.12;39.30
44481;BME280;30184;42.018;23.670;2023-07-29T07:47:35;91431.88;;;24.21;39.10
44481;BME280;30184;42.018;23.670;2023-07-29T07:50:05;91410.19;;;24.19;39.17
44481;BME280;30184;42.018;23.670;2023-07-29T07:52:34;91416.06;;;24.40;39.18
44481;BME280;30184;42.018;23.670;2023-07-29T07:55:04;91434.25;;;24.60;39.18
44481;BME280;30184;42.018;23.670;2023-07-29T07:57:33;91432.88;;;24.72;38.29
44481;BME280;30184;42.018;23.670;2023-07-29T08:00:03;91430.16;;;24.85;39.23
44481;BME280;30184;42.018;23.670;2023-07-29T08:02:41;91418.97;;;24.97;38.20
44481;BME280;30184;42.018;23.670;2023-07-29T08:05:10;91352.28;;;24.59;38.51
44481;BME280;30184;42.018;23.670;2023-07-29T08:07:39;91406.22;;;25.07;38.27
44481;BME280;30184;42.018;23.670;2023-07-29T08:10:08;91394.34;;;25.06;37.95
44481;BME280;30184;42.018;23.670;2023-07-29T08:12:37;91346.16;;;24.85;37.76
44481;BME280;30184;42.018;23.670;2023-07-29T08:15:07;91393.53;;;25.30;42.15
44481;BME280;30184;42.018;23.670;2023-07-29T08:17:36;91378.34;;;25.31;39.03
44481;BME280;30184;42.018;23.670;2023-07-29T08:20:08;91397.47;;;25.53;37.88
44481;BME280;30184;42.018;23.670;2023-07-29T08:22:38;91401.81;;;25.68;40.30
44481;BME280;30184;42.018;23.670;2023-07-29T08:25:07;91329.66;;;25.30;37.55
44481;BME280;30184;42.018;23.670;2023-07-29T08:27:37;91328.53;;;25.52;37.67
44481;BME280;30184;42.018;23.670;2023-07-29T08:30:07;91394.31;;;26.08;36.54
44481;BME280;30184;42.018;23.670;2023-07-29T08:32:36;91381.06;;;26.14;35.80
44481;BME280;30184;42.018;23.670;2023-07-29T08:35:08;91318.56;;;25.75;36.62
44481;BME280;30184;42.018;23.670;2023-07-29T08:37:37;91402.19;;;26.35;36.12
44481;BME280;30184;42.018;23.670;2023-07-29T08:40:07;91264.69;;;25.65;37.11
44481;BME280;30184;42.018;23.670;2023-07-29T08:42:37;91366.97;;;26.51;36.00
44481;BME280;30184;42.018;23.670;2023-07-29T08:45:08;91363.25;;;26.62;35.76
44481;BME280;30184;42.018;23.670;2023-07-29T08:47:38;91362.59;;;26.69;35.69
44481;BME280;30184;42.018;23.670;2023-07-29T08:50:09;91303.72;;;26.25;35.51
44481;BME280;30184;42.018;23.670;2023-07-29T08:52:41;91290.69;;;26.33;35.25
44481;BME280;30184;42.018;23.670;2023-07-29T08:55:12;91337.44;;;26.74;34.66
44481;BME280;30184;42.018;23.670;2023-07-29T08:57:41;91322.38;;;26.57;35.95
44481;BME280;30184;42.018;23.670;2023-07-29T09:00:11;91361.19;;;27.02;34.47
44481;BME280;30184;42.018;23.670;2023-07-29T09:02:40;91330.59;;;26.75;34.98
44481;BME280;30184;42.018;23.670;2023-07-29T09:05:11;91333.66;;;26.98;34.44
44481;BME280;30184;42.018;23.670;2023-07-29T09:07:40;91358.31;;;27.28;36.73
44481;BME280;30184;42.018;23.670;2023-07-29T09:10:10;91350.78;;;27.36;35.19
44481;BME280;30184;42.018;23.670;2023-07-29T09:12:42;91373.28;;;27.38;34.46
44481;BME280;30184;42.018;23.670;2023-07-29T09:15:12;91352.72;;;27.41;34.72
44481;BME280;30184;42.018;23.670;2023-07-29T09:17:41;91347.19;;;27.49;34.46
44481;BME280;30184;42.018;23.670;2023-07-29T09:20:13;91310.41;;;27.30;35.06
44481;BME280;30184;42.018;23.670;2023-07-29T09:22:45;91314.44;;;27.42;34.25
44481;BME280;30184;42.018;23.670;2023-07-29T09:25:14;91356.09;;;27.61;34.82
44481;BME280;30184;42.018;23.670;2023-07-29T09:27:44;91336.69;;;27.76;33.14
44481;BME280;30184;42.018;23.670;2023-07-29T09:30:15;91361.66;;;27.81;33.63
44481;BME280;30184;42.018;23.670;2023-07-29T09:32:54;91332.34;;;27.88;33.02
44481;BME280;30184;42.018;23.670;2023-07-29T09:35:27;91352.19;;;27.84;33.46
44481;BME280;30184;42.018;23.670;2023-07-29T09:37:56;91242.00;;;27.42;33.54
44481;BME280;30184;42.018;23.670;2023-07-29T09:40:26;91313.47;;;28.02;33.38
44481;BME280;30184;42.018;23.670;2023-07-29T09:42:55;91318.09;;;28.20;33.01
44481;BME280;30184;42.018;23.670;2023-07-29T09:45:26;91275.13;;;27.95;32.71
44481;BME280;30184;42.018;23.670;2023-07-29T09:47:57;91305.16;;;28.09;32.95
44481;BME280;30184;42.018;23.670;2023-07-29T09:50:29;91334.25;;;28.42;32.66
44481;BME280;30184;42.018;23.670;2023-07-29T09:52:58;91319.59;;;28.49;32.14
44481;BME280;30184;42.018;23.670;2023-07-29T09:55:28;91309.38;;;28.52;34.23
44481;BME280;30184;42.018;23.670;2023-07-29T09:57:59;91382.41;;;28.64;31.47
44481;BME280;30184;42.018;23.670;2023-07-29T10:00:32;91308.63;;;28.87;32.09
44481;BME280;30184;42.018;23.670;2023-07-29T10:03:06;91270.44;;;28.82;31.11
44481;BME280;30184;42.018;23.670;2023-07-29T10:05:38;91269.06;;;28.76;31.89
44481;BME280;30184;42.018;23.670;2023-07-29T10:08:09;91317.59;;;29.01;32.93
44481;BME280;30184;42.018;23.670;2023-07-29T10:10:41;91288.56;;;29.04;31.19
44481;BME280;30184;42.018;23.670;2023-07-29T10:13:12;91235.78;;;28.78;31.37
44481;BME280;30184;42.018;23.670;2023-07-29T10:15:42;91245.72;;;28.94;31.49
44481;BME280;30184;42.018;23.670;2023-07-29T10:18:41;91297.03;;;29.35;30.44
44481;BME280;30184;42.018;23.670;2023-07-29T10:21:44;91223.69;;;28.83;30.24
44481;BME280;30184;42.018;23.670;2023-07-29T10:24:19;91273.72;;;29.24;35.21
44481;BME280;30184;42.018;23.670;2023-07-29T10:26:58;91256.22;;;29.31;30.88
44481;BME280;30184;42.018;23.670;2023-07-29T10:29:30;91215.03;;;29.32;30.95
44481;BME280;30184;42.018;23.670;2023-07-29T10:32:01;91253.28;;;29.60;30.12
44481;BME280;30184;42.018;23.670;2023-07-29T10:34:32;91286.31;;;29.84;30.08
44481;BME280;30184;42.018;23.670;2023-07-29T10:37:03;91224.78;;;29.54;29.81
44481;BME280;30184;42.018;23.670;2023-07-29T10:39:38;91269.91;;;29.96;29.43
44481;BME280;30184;42.018;23.670;2023-07-29T10:42:08;91264.50;;;30.05;29.87
44481;BME280;30184;42.018;23.670;2023-07-29T10:44:47;91263.22;;;29.99;28.99
44481;BME280;30184;42.018;23.670;2023-07-29T10:47:20;91255.94;;;29.96;29.11
44481;BME280;30184;42.018;23.670;2023-07-29T10:49:51;91263.94;;;29.84;30.26
44481;BME280;30184;42.018;23.670;2023-07-29T10:52:32;91180.41;;;29.43;29.18
44481;BME280;30184;42.018;23.670;2023-07-29T10:55:25;91224.03;;;29.68;29.52
44481;BME280;30184;42.018;23.670;2023-07-29T10:58:06;91250.88;;;29.72;28.18
44481;BME280;30184;42.018;23.670;2023-07-29T11:00:35;91180.00;;;29.31;29.35
44481;BME280;30184;42.018;23.670;2023-07-29T11:03:06;91236.16;;;29.71;29.33
44481;BME280;30184;42.018;23.670;2023-07-29T11:05:46;91236.31;;;29.88;28.95
44481;BME280;30184;42.018;23.670;2023-07-29T11:08:22;91238.19;;;29.93;29.13
44481;BME280;30184;42.018;23.670;2023-07-29T11:11:01;91173.31;;;29.72;28.32
44481;BME280;30184;42.018;23.670;2023-07-29T11:13:32;91213.75;;;30.09;29.80
44481;BME280;30184;42.018;23.670;2023-07-29T11:16:02;91254.19;;;30.31;28.60
44481;BME280;30184;42.018;23.670;2023-07-29T11:18:32;91224.31;;;30.41;27.91
44481;BME280;30184;42.018;23.670;2023-07-29T11:21:04;91242.41;;;30.48;27.53
44481;BME280;30184;42.018;23.670;2023-07-29T11:23:36;91234.00;;;30.55;27.52
44481;BME280;30184;42.018;23.670;2023-07-29T11:26:06;91221.16;;;30.37;26.87
44481;BME280;30184;42.018;23.670;2023-07-29T11:28:39;91166.88;;;30.25;27.90
44481;BME280;30184;42.018;23.670;2023-07-29T11:31:09;91253.88;;;30.82;27.70
44481;BME280;30184;42.018;23.670;2023-07-29T11:33:39;91206.00;;;30.95;27.64
44481;BME280;30184;42.018;23.670;2023-07-29T11:36:17;91152.31;;;30.74;26.99
44481;BME280;30184;42.018;23.670;2023-07-29T11:38:49;91149.47;;;30.82;26.76
44481;BME280;30184;42.018;23.670;2023-07-29T11:41:19;91131.63;;;30.69;26.15
44481;BME280;30184;42.018;23.670;2023-07-29T11:43:49;91127.91;;;30.67;27.02
44481;BME280;30184;42.018;23.670;2023-07-29T11:46:21;91198.63;;;31.15;27.04
44481;BME280;30184;42.018;23.670;2023-07-29T11:48:54;91146.41;;;30.95;29.15
44481;BME280;30184;42.018;23.670;2023-07-29T11:51:25;91162.66;;;31.29;28.04
44481;BME280;30184;42.018;23.670;2023-07-29T11:53:56;91202.78;;;31.64;26.99
44481;BME280;30184;42.018;23.670;2023-07-29T11:56:26;91232.75;;;31.53;26.35
44481;BME280;30184;42.018;23.670;2023-07-29T11:58:57;91200.16;;;31.41;26.92
44481;BME280;30184;42.018;23.670;2023-07-29T12:01:27;91131.22;;;30.73;27.85
44481;BME280;30184;42.018;23.670;2023-07-29T12:03:57;91196.84;;;31.27;28.71
44481;BME280;30184;42.018;23.670;2023-07-29T12:06:27;91194.63;;;30.93;28.90
44481;BME280;30184;42.018;23.670;2023-07-29T12:09:00;91189.41;;;30.90;29.18
44481;BME280;30184;42.018;23.670;2023-07-29T12:11:30;91200.28;;;30.86;29.07
44481;BME280;30184;42.018;23.670;2023-07-29T12:14:00;91200.66;;;30.82;29.19
44481;BME280;30184;42.018;23.670;2023-07-29T12:16:29;91212.53;;;30.58;29.06
44481;BME280;30184;42.018;23.670;2023-07-29T12:19:02;91197.22;;;30.43;29.62
44481;BME280;30184;42.018;23.670;2023-07-29T12:21:33;91202.69;;;30.34;29.78
44481;BME280;30184;42.018;23.670;2023-07-29T12:24:05;91215.19;;;30.33;30.24
44481;BME280;30184;42.018;23.670;2023-07-29T12:26:35;91200.06;;;30.36;28.69
44481;BME280;30184;42.018;23.670;2023-07-29T12:29:11;91197.03;;;30.41;29.90
44481;BME280;30184;42.018;23.670;2023-07-29T12:31:41;91178.97;;;30.35;28.97
44481;BME280;30184;42.018;23.670;2023-07-29T12:34:17;91128.72;;;29.97;28.64
44481;BME280;30184;42.018;23.670;2023-07-29T12:36:47;91191.50;;;30.26;29.35
44481;BME280;30184;42.018;23.670;2023-07-29T12:39:20;91195.97;;;30.37;28.62
44481;BME280;30184;42.018;23.670;2023-07-29T12:41:51;91187.94;;;30.33;29.44
44481;BME280;30184;42.018;23.670;2023-07-29T12:44:23;91193.56;;;30.26;29.07
44481;BME280;30184;42.018;23.670;2023-07-29T12:46:52;91191.53;;;30.19;28.47
44481;BME280;30184;42.018;23.670;2023-07-29T12:49:22;91242.09;;;30.13;28.21
44481;BME280;30184;42.018;23.670;2023-07-29T12:51:52;91201.41;;;30.12;29.54
44481;BME280;30184;42.018;23.670;2023-07-29T12:54:23;91203.91;;;30.00;29.34
44481;BME280;30184;42.018;23.670;2023-07-29T12:56:53;91187.66;;;29.91;29.46
44481;BME280;30184;42.018;23.670;2023-07-29T12:59:22;91208.34;;;29.88;29.83
44481;BME280;30184;42.018;23.670;2023-07-29T13:01:51;91196.97;;;29.86;30.54
44481;BME280;30184;42.018;23.670;2023-07-29T13:04:21;91044.41;;;28.77;30.68
44481;BME280;30184;42.018;23.670;2023-07-29T13:06:51;91204.06;;;29.80;30.17
44481;BME280;30184;42.018;23.670;2023-07-29T13:09:20;91150.22;;;29.33;29.74